createdAt,value
2022-12-09T00:01:48.285Z,16.67
2022-12-09T00:04:17.662Z,18.93
2022-12-09T00:06:45.725Z,19.10
2022-12-09T00:09:15.966Z,15.30
2022-12-09T00:11:44.587Z,19.37
2022-12-09T00:14:12.581Z,16.17
2022-12-09T00:16:41.879Z,16.00
2022-12-09T00:19:10.135Z,20.52
2022-12-09T00:21:38.096Z,19.27
2022-12-09T00:24:08.078Z,20.23
2022-12-09T00:26:36.005Z,21.10
2022-12-09T00:29:04.414Z,17.03
2022-12-09T00:31:34.846Z,18.00
2022-12-09T00:34:07.412Z,20.60
2022-12-09T00:36:35.836Z,20.57
2022-12-09T00:39:04.037Z,17.50
2022-12-09T00:41:32.039Z,17.77
2022-12-09T00:44:00.062Z,21.30
2022-12-09T00:46:28.024Z,22.53
2022-12-09T00:48:55.905Z,20.53
2022-12-09T00:51:26.567Z,21.07
2022-12-09T00:53:55.905Z,20.13
2022-12-09T00:56:25.410Z,19.50
2022-12-09T00:58:53.391Z,20.33
2022-12-09T01:01:21.335Z,22.30
2022-12-09T01:03:49.577Z,16.87
2022-12-09T01:06:22.122Z,27.83
2022-12-09T01:08:51.847Z,19.67
2022-12-09T01:11:21.623Z,21.97
2022-12-09T01:13:50.043Z,20.07
2022-12-09T01:16:19.806Z,21.80
2022-12-09T01:18:48.035Z,17.23
2022-12-09T01:21:16.264Z,18.70
2022-12-09T01:23:44.353Z,20.63
2022-12-09T01:26:14.238Z,19.13
2022-12-09T01:28:42.128Z,21.57
2022-12-09T01:31:12.019Z,22.07
2022-12-09T01:33:39.984Z,18.17
2022-12-09T01:36:09.720Z,16.37
2022-12-09T01:38:38.076Z,19.83
2022-12-09T01:41:06.126Z,19.07
2022-12-09T01:43:35.736Z,22.70
2022-12-09T01:46:04.030Z,21.57
2022-12-09T01:48:34.574Z,21.70
2022-12-09T01:51:08.748Z,20.47
2022-12-09T01:53:39.192Z,21.73
2022-12-09T01:56:11.524Z,18.90
2022-12-09T01:58:41.069Z,25.07
2022-12-09T02:01:09.156Z,18.63
2022-12-09T02:03:37.155Z,17.97
2022-12-09T02:06:05.653Z,20.53
2022-12-09T02:08:33.568Z,17.10
2022-12-09T02:11:09.323Z,21.20
2022-12-09T02:13:46.637Z,20.20
2022-12-09T02:16:18.265Z,19.77
2022-12-09T02:18:52.313Z,19.57
2022-12-09T02:21:26.643Z,21.17
2022-12-09T02:24:00.537Z,21.73
2022-12-09T02:26:39.737Z,19.67
2022-12-09T02:29:32.564Z,19.27
2022-12-09T02:32:24.493Z,17.20
2022-12-09T02:34:58.559Z,23.60
2022-12-09T02:37:32.332Z,19.10
2022-12-09T02:40:05.140Z,20.30
2022-12-09T02:42:37.304Z,18.73
2022-12-09T02:45:08.844Z,19.90
2022-12-09T02:47:40.806Z,23.63
2022-12-09T02:50:14.839Z,17.30
2022-12-09T02:52:44.629Z,20.90
2022-12-09T02:55:16.043Z,18.60
2022-12-09T02:57:44.148Z,18.63
2022-12-09T03:00:15.844Z,16.07
2022-12-09T03:02:47.051Z,16.70
2022-12-09T03:05:23.241Z,16.20
2022-12-09T03:07:59.723Z,18.87
2022-12-09T03:10:33.213Z,17.67
2022-12-09T03:13:06.353Z,17.43
2022-12-09T03:15:37.887Z,18.97
2022-12-09T03:18:11.224Z,16.93
2022-12-09T03:20:44.072Z,18.70
2022-12-09T03:23:15.560Z,17.37
2022-12-09T03:25:47.449Z,17.80
2022-12-09T03:28:20.724Z,15.27
2022-12-09T03:30:48.904Z,19.00
2022-12-09T03:33:18.708Z,19.00
2022-12-09T03:35:52.415Z,18.27
2022-12-09T03:38:24.153Z,17.27
2022-12-09T03:41:04.707Z,15.93
2022-12-09T03:43:37.195Z,17.60
2022-12-09T03:46:05.608Z,16.77
2022-12-09T03:48:34.076Z,16.70
2022-12-09T03:51:08.867Z,15.10
2022-12-09T03:53:43.619Z,13.87
2022-12-09T03:56:16.717Z,16.87
2022-12-09T03:58:46.680Z,14.63
2022-12-09T04:01:16.401Z,16.53
2022-12-09T04:03:46.212Z,15.40
2022-12-09T04:06:15.932Z,15.37
2022-12-09T04:08:44.158Z,14.33
2022-12-09T04:11:12.240Z,16.03
2022-12-09T04:13:40.121Z,11.70
2022-12-09T04:16:09.474Z,14.97
2022-12-09T04:18:37.369Z,12.73
2022-12-09T04:21:08.544Z,13.47
2022-12-09T04:23:42.524Z,12.60
2022-12-09T04:26:14.868Z,14.20
2022-12-09T04:28:42.777Z,14.17
2022-12-09T04:31:12.977Z,12.10
2022-12-09T04:33:41.688Z,13.03
2022-12-09T04:36:12.632Z,12.63
2022-12-09T04:38:42.319Z,13.30
2022-12-09T04:41:10.561Z,13.10
2022-12-09T04:43:38.543Z,12.67
2022-12-09T04:46:08.408Z,12.00
2022-12-09T04:48:36.758Z,14.13
2022-12-09T04:51:05.000Z,14.40
2022-12-09T04:53:32.839Z,13.67
2022-12-09T04:56:03.097Z,14.20
2022-12-09T04:58:31.212Z,10.73
2022-12-09T05:00:59.130Z,13.23
2022-12-09T05:03:27.526Z,11.20
2022-12-09T05:05:55.468Z,11.80
2022-12-09T05:08:29.845Z,11.77
2022-12-09T05:10:59.464Z,11.67
2022-12-09T05:13:29.226Z,12.33
2022-12-09T05:16:02.016Z,10.63
2022-12-09T05:18:30.705Z,13.73
2022-12-09T05:20:59.001Z,13.00
2022-12-09T05:23:27.170Z,11.73
2022-12-09T05:25:55.589Z,11.70
2022-12-09T05:28:24.337Z,12.83
2022-12-09T05:30:53.527Z,13.60
2022-12-09T05:33:21.845Z,13.60
2022-12-09T05:35:53.026Z,13.10
2022-12-09T05:38:21.933Z,12.13
2022-12-09T05:40:50.675Z,10.60
2022-12-09T05:43:19.502Z,11.30
2022-12-09T05:45:47.422Z,13.57
2022-12-09T05:48:17.066Z,12.73
2022-12-09T05:50:45.053Z,12.43
2022-12-09T05:53:12.962Z,13.03
2022-12-09T05:55:42.124Z,10.90
2022-12-09T05:58:10.381Z,10.40
2022-12-09T06:00:38.269Z,11.03
2022-12-09T06:03:06.156Z,11.13
2022-12-09T06:05:35.745Z,11.50
2022-12-09T06:08:07.141Z,19.53
2022-12-09T06:10:36.391Z,15.30
2022-12-09T06:13:04.353Z,11.10
2022-12-09T06:15:33.964Z,12.13
2022-12-09T06:18:02.992Z,13.93
2022-12-09T06:20:31.357Z,12.13
2022-12-09T06:23:00.746Z,12.07
2022-12-09T06:25:29.057Z,12.30
2022-12-09T06:27:57.353Z,9.73
2022-12-09T06:30:25.300Z,10.63
2022-12-09T06:32:53.611Z,11.80
2022-12-09T06:35:21.617Z,13.23
2022-12-09T06:37:52.972Z,12.30
2022-12-09T06:40:22.853Z,10.33
2022-12-09T06:42:51.541Z,10.17
2022-12-09T06:45:20.097Z,11.23
2022-12-09T06:47:48.701Z,11.50
2022-12-09T06:50:17.619Z,11.27
2022-12-09T06:52:45.580Z,11.07
2022-12-09T06:55:14.407Z,11.10
2022-12-09T06:57:43.896Z,11.13
2022-12-09T07:00:13.075Z,10.93
2022-12-09T07:02:41.845Z,10.30
2022-12-09T07:05:11.845Z,12.07
2022-12-09T07:07:40.053Z,12.13
2022-12-09T07:10:10.521Z,10.57
2022-12-09T07:12:38.455Z,12.83
2022-12-09T07:15:09.624Z,10.37
2022-12-09T07:17:38.479Z,11.23
2022-12-09T07:20:08.417Z,10.33
2022-12-09T07:22:37.126Z,13.13
2022-12-09T07:25:06.593Z,14.73
2022-12-09T07:27:35.610Z,12.73
2022-12-09T07:30:03.588Z,14.53
2022-12-09T07:32:33.088Z,12.67
2022-12-09T07:35:01.394Z,13.73
2022-12-09T07:37:29.670Z,15.90
2022-12-09T07:39:57.771Z,14.83
2022-12-09T07:42:25.755Z,11.70
2022-12-09T07:44:54.614Z,12.03
2022-12-09T07:47:23.077Z,14.10
2022-12-09T07:49:52.788Z,12.40
2022-12-09T07:52:21.104Z,12.90
2022-12-09T07:54:49.085Z,11.33
2022-12-09T07:57:17.096Z,10.53
2022-12-09T07:59:45.205Z,12.23
2022-12-09T08:02:13.161Z,12.77
2022-12-09T08:04:41.474Z,12.03
2022-12-09T08:07:13.245Z,13.43
2022-12-09T08:09:42.030Z,16.20
2022-12-09T08:12:12.725Z,11.00
2022-12-09T08:14:40.975Z,12.53
2022-12-09T08:17:09.050Z,9.63
2022-12-09T08:19:37.271Z,10.10
2022-12-09T08:22:05.657Z,13.43
2022-12-09T08:24:35.427Z,12.60
2022-12-09T08:27:03.695Z,11.87
2022-12-09T08:29:32.059Z,12.70
2022-12-09T08:32:00.126Z,15.77
2022-12-09T08:34:29.239Z,12.00
2022-12-09T08:37:01.752Z,12.03
2022-12-09T08:39:30.372Z,13.43
2022-12-09T08:42:00.148Z,14.80
2022-12-09T08:44:28.497Z,14.00
2022-12-09T08:46:56.930Z,11.93
2022-12-09T08:49:25.113Z,13.03
2022-12-09T08:51:54.703Z,20.20
2022-12-09T08:54:23.211Z,15.57
2022-12-09T08:56:52.541Z,13.33
2022-12-09T08:59:23.051Z,15.17
2022-12-09T09:01:51.599Z,16.97
2022-12-09T09:04:23.046Z,13.20
2022-12-09T09:06:52.578Z,13.23
2022-12-09T09:09:22.345Z,15.70
2022-12-09T09:11:51.054Z,17.93
2022-12-09T09:14:19.325Z,15.53
2022-12-09T09:16:49.097Z,15.40
2022-12-09T09:19:23.518Z,17.43
2022-12-09T09:21:51.774Z,15.90
2022-12-09T09:24:22.374Z,17.17
2022-12-09T09:26:51.727Z,14.20
2022-12-09T09:29:21.353Z,14.60
2022-12-09T09:31:54.450Z,15.57
2022-12-09T09:34:23.946Z,13.83
2022-12-09T09:36:52.167Z,17.90
2022-12-09T09:39:21.639Z,16.07
2022-12-09T09:41:53.053Z,14.80
2022-12-09T09:44:26.653Z,13.07
2022-12-09T09:46:57.518Z,13.40
2022-12-09T09:49:36.462Z,11.60
2022-12-09T09:52:08.583Z,12.57
2022-12-09T09:54:37.457Z,12.50
2022-12-09T09:57:13.333Z,14.10
2022-12-09T09:59:54.903Z,13.50
2022-12-09T10:02:36.633Z,9.53
2022-12-09T10:05:14.253Z,10.57
2022-12-09T10:07:44.150Z,11.10
2022-12-09T10:10:24.144Z,15.47
2022-12-09T10:13:08.355Z,11.63
2022-12-09T10:15:48.466Z,11.17
2022-12-09T10:18:22.752Z,11.60
2022-12-09T10:20:51.380Z,12.50
2022-12-09T10:23:20.188Z,13.60
2022-12-09T10:25:52.868Z,14.13
2022-12-09T10:28:23.947Z,14.57
2022-12-09T10:30:53.760Z,14.03
2022-12-09T10:33:27.811Z,15.37
2022-12-09T10:35:56.266Z,19.00
2022-12-09T10:38:27.004Z,12.53
2022-12-09T10:41:03.723Z,12.90
2022-12-09T10:43:37.583Z,15.07
2022-12-09T10:46:19.248Z,12.80
2022-12-09T10:48:57.571Z,31.70
2022-12-09T10:51:29.890Z,11.30
2022-12-09T10:54:01.870Z,12.20
2022-12-09T10:56:33.343Z,10.73
2022-12-09T10:59:11.591Z,12.73
2022-12-09T11:01:50.626Z,11.10
2022-12-09T11:04:25.364Z,11.90
2022-12-09T11:06:59.867Z,12.47
2022-12-09T11:09:30.950Z,10.80
2022-12-09T11:12:00.045Z,13.87
2022-12-09T11:14:32.817Z,15.33
2022-12-09T11:17:12.078Z,14.43
2022-12-09T11:19:41.954Z,16.70
2022-12-09T11:22:29.313Z,13.90
2022-12-09T11:25:16.599Z,13.00
2022-12-09T11:27:51.015Z,15.00
2022-12-09T11:30:22.332Z,15.93
2022-12-09T11:33:07.037Z,17.83
2022-12-09T11:35:53.181Z,19.80
2022-12-09T11:38:30.809Z,16.67
2022-12-09T11:41:02.926Z,18.10
2022-12-09T11:43:39.110Z,17.40
2022-12-09T11:46:19.044Z,16.57
2022-12-09T11:48:54.216Z,15.83
2022-12-09T11:51:29.673Z,17.23
2022-12-09T11:54:03.675Z,17.63
2022-12-09T11:56:33.751Z,15.67
2022-12-09T11:59:05.356Z,17.00
2022-12-09T12:01:48.467Z,18.73
2022-12-09T12:04:19.307Z,19.77
2022-12-09T12:06:52.339Z,19.07
2022-12-09T12:09:25.657Z,15.00
2022-12-09T12:12:01.927Z,15.90
2022-12-09T12:14:31.392Z,24.80
2022-12-09T12:17:08.010Z,21.47
2022-12-09T12:19:39.277Z,21.67
2022-12-09T12:22:36.612Z,29.20
2022-12-09T12:25:23.743Z,22.33
2022-12-09T12:28:05.182Z,22.73
2022-12-09T12:30:41.399Z,28.37
2022-12-09T12:34:00.413Z,26.93
2022-12-09T12:36:26.813Z,21.70
2022-12-09T12:39:06.636Z,23.93
2022-12-09T12:41:42.809Z,27.30
2022-12-09T12:44:52.921Z,26.73
2022-12-09T12:47:25.791Z,19.87
2022-12-09T12:50:14.024Z,25.20
2022-12-09T12:52:56.088Z,26.47
2022-12-09T12:55:47.569Z,23.60
2022-12-09T12:58:24.345Z,22.83
2022-12-09T13:01:02.585Z,20.80
2022-12-09T13:03:39.640Z,18.60
2022-12-09T13:06:12.295Z,18.97
2022-12-09T13:08:43.416Z,18.13
2022-12-09T13:11:17.408Z,21.33
2022-12-09T13:13:49.286Z,21.70
2022-12-09T13:16:20.830Z,20.50
2022-12-09T13:18:49.931Z,24.10
2022-12-09T13:21:18.736Z,24.67
2022-12-09T13:24:02.940Z,22.20
2022-12-09T13:26:44.064Z,26.47
2022-12-09T13:29:25.824Z,20.23
2022-12-09T13:32:00.293Z,24.60
2022-12-09T13:34:36.997Z,23.93
2022-12-09T13:37:05.317Z,25.53
2022-12-09T13:39:58.232Z,22.63
2022-12-09T13:43:01.409Z,21.83
2022-12-09T13:45:34.435Z,24.13
2022-12-09T13:48:08.679Z,22.37
2022-12-09T13:50:43.049Z,21.73
2022-12-09T13:53:25.881Z,21.90
2022-12-09T13:55:55.959Z,22.47
2022-12-09T13:58:50.035Z,19.33
2022-12-09T14:01:23.536Z,23.03
2022-12-09T14:04:09.566Z,32.57
2022-12-09T14:06:41.360Z,27.73
2022-12-09T14:09:25.924Z,32.90
2022-12-09T14:11:55.170Z,26.70
2022-12-09T14:14:58.893Z,27.03
2022-12-09T14:18:03.454Z,29.20
2022-12-09T14:20:37.553Z,24.30
2022-12-09T14:23:14.127Z,26.10
2022-12-09T14:25:55.129Z,24.93
2022-12-09T14:28:40.516Z,26.73
2022-12-09T14:31:09.143Z,29.20
2022-12-09T14:33:42.619Z,27.33
2022-12-09T14:36:28.326Z,27.20
2022-12-09T14:39:23.845Z,28.60
2022-12-09T14:41:54.824Z,25.20
2022-12-09T14:44:31.173Z,28.60
2022-12-09T14:47:15.560Z,26.30
2022-12-09T14:49:49.065Z,28.57
2022-12-09T14:52:23.503Z,24.47
2022-12-09T14:54:53.600Z,27.90
2022-12-09T14:57:24.689Z,23.40
2022-12-09T14:59:54.069Z,24.63
2022-12-09T15:02:23.752Z,24.67
2022-12-09T15:04:54.771Z,26.80
2022-12-09T15:07:25.027Z,24.00
2022-12-09T15:09:57.626Z,31.80
2022-12-09T15:12:30.542Z,30.37
2022-12-09T15:15:03.580Z,26.97
2022-12-09T15:17:35.906Z,27.83
2022-12-09T15:20:06.034Z,30.83
2022-12-09T15:22:34.262Z,38.10
2022-12-09T15:25:04.370Z,33.93
2022-12-09T15:27:32.599Z,30.00
2022-12-09T15:30:00.455Z,34.70
2022-12-09T15:32:31.365Z,27.87
2022-12-09T15:35:17.891Z,34.30
2022-12-09T15:37:47.280Z,26.00
2022-12-09T15:40:22.313Z,38.37
2022-12-09T15:42:55.155Z,27.30
2022-12-09T15:45:25.203Z,31.47
2022-12-09T15:47:56.302Z,28.43
2022-12-09T15:50:28.117Z,30.17
2022-12-09T15:52:58.159Z,33.07
2022-12-09T15:55:31.738Z,34.50
2022-12-09T15:58:03.753Z,36.90
2022-12-09T16:00:31.687Z,34.77
2022-12-09T16:02:59.707Z,36.03
2022-12-09T16:05:29.010Z,41.33
2022-12-09T16:08:00.525Z,35.33
2022-12-09T16:10:29.886Z,39.60
2022-12-09T16:13:11.193Z,42.33
2022-12-09T16:15:52.601Z,35.43
2022-12-09T16:18:24.306Z,38.00
2022-12-09T16:21:22.741Z,35.10
2022-12-09T16:23:53.752Z,36.70
2022-12-09T16:26:25.817Z,35.63
2022-12-09T16:28:59.357Z,35.43
2022-12-09T16:31:27.670Z,31.03
2022-12-09T16:33:55.859Z,31.73
2022-12-09T16:36:28.986Z,36.43
2022-12-09T16:39:36.102Z,37.73
2022-12-09T16:42:03.986Z,38.70
2022-12-09T16:44:36.990Z,36.97
2022-12-09T16:47:13.168Z,39.90
2022-12-09T16:49:42.402Z,43.63
2022-12-09T16:52:15.100Z,43.30
2022-12-09T16:54:44.428Z,40.53
2022-12-09T16:57:17.130Z,39.67
2022-12-09T16:59:46.196Z,40.87
2022-12-09T17:02:19.959Z,38.63
2022-12-09T17:04:48.974Z,52.97
2022-12-09T17:07:18.147Z,45.53
2022-12-09T17:09:53.527Z,44.83
2022-12-09T17:12:21.507Z,45.10
2022-12-09T17:14:49.818Z,42.87
2022-12-09T17:17:17.766Z,44.10
2022-12-09T17:19:45.581Z,45.23
2022-12-09T17:22:13.522Z,36.93
2022-12-09T17:24:42.672Z,43.20
2022-12-09T17:27:10.645Z,49.90
2022-12-09T17:29:38.528Z,46.70
2022-12-09T17:32:06.985Z,44.77
2022-12-09T17:34:34.908Z,41.60
2022-12-09T17:37:03.933Z,43.27
2022-12-09T17:39:32.129Z,42.60
2022-12-09T17:42:01.364Z,47.23
2022-12-09T17:44:29.670Z,47.37
2022-12-09T17:46:57.519Z,53.27
2022-12-09T17:49:25.505Z,43.63
2022-12-09T17:51:53.353Z,56.90
2022-12-09T17:54:21.157Z,43.83
2022-12-09T17:56:49.030Z,49.73
2022-12-09T17:59:18.644Z,50.07
2022-12-09T18:01:47.165Z,54.87
2022-12-09T18:04:15.879Z,59.57
2022-12-09T18:06:45.696Z,60.33
2022-12-09T18:09:16.350Z,57.07
2022-12-09T18:11:44.913Z,59.97
2022-12-09T18:14:13.029Z,54.13
2022-12-09T18:16:42.695Z,67.20
2022-12-09T18:19:15.121Z,61.13
2022-12-09T18:21:43.283Z,70.87
2022-12-09T18:24:11.209Z,64.03
2022-12-09T18:26:41.988Z,62.23
2022-12-09T18:29:10.542Z,62.27
2022-12-09T18:31:38.567Z,62.43
2022-12-09T18:34:08.132Z,56.13
2022-12-09T18:36:35.947Z,53.50
2022-12-09T18:39:04.154Z,59.10
2022-12-09T18:41:32.822Z,46.13
2022-12-09T18:44:03.071Z,48.07
2022-12-09T18:46:33.497Z,46.00
2022-12-09T18:49:03.538Z,46.33
2022-12-09T18:51:32.953Z,52.17
2022-12-09T18:54:02.381Z,52.40
2022-12-09T18:56:31.115Z,40.70
2022-12-09T18:59:08.253Z,47.03
2022-12-09T19:01:40.156Z,45.13
2022-12-09T19:04:12.405Z,40.20
2022-12-09T19:06:43.334Z,41.83
2022-12-09T19:09:14.945Z,52.60
2022-12-09T19:11:44.355Z,46.30
2022-12-09T19:14:13.950Z,67.27
2022-12-09T19:16:42.620Z,49.97
2022-12-09T19:19:13.128Z,53.37
2022-12-09T19:21:42.879Z,46.20
2022-12-09T19:24:14.567Z,43.10
2022-12-09T19:26:43.593Z,45.97
2022-12-09T19:29:12.989Z,41.47
2022-12-09T19:31:42.096Z,44.70
2022-12-09T19:34:14.296Z,39.77
2022-12-09T19:36:44.168Z,55.65
2022-12-09T19:39:13.744Z,50.80
2022-12-09T19:41:43.179Z,43.60
2022-12-09T19:44:15.340Z,46.80
2022-12-09T19:46:43.891Z,50.27
2022-12-09T19:49:13.825Z,47.43
2022-12-09T19:51:43.957Z,43.30
2022-12-09T19:54:12.124Z,41.30
2022-12-09T19:56:40.214Z,39.43
2022-12-09T19:59:08.317Z,43.23
2022-12-09T20:01:38.093Z,37.97
2022-12-09T20:04:46.319Z,42.93
2022-12-09T20:07:04.881Z,36.77
2022-12-09T20:09:35.955Z,32.77
2022-12-09T20:12:03.800Z,36.53
2022-12-09T20:14:31.658Z,39.40
2022-12-09T20:16:59.788Z,39.50
2022-12-09T20:19:28.030Z,43.97
2022-12-09T20:21:55.835Z,34.83
2022-12-09T20:24:25.164Z,32.47
2022-12-09T20:26:52.994Z,36.90
2022-12-09T20:29:20.813Z,40.20
2022-12-09T20:31:48.732Z,38.97
2022-12-09T20:34:17.973Z,40.40
2022-12-09T20:36:46.954Z,39.90
2022-12-09T20:39:16.868Z,45.10
2022-12-09T20:41:46.424Z,40.20
2022-12-09T20:44:15.867Z,43.73
2022-12-09T20:46:47.574Z,36.17
2022-12-09T20:49:15.348Z,45.50
2022-12-09T20:51:45.137Z,36.53
2022-12-09T20:54:13.806Z,34.90
2022-12-09T20:56:41.954Z,35.67
2022-12-09T20:59:13.481Z,37.60
2022-12-09T21:01:41.542Z,41.80
2022-12-09T21:04:09.529Z,43.67
2022-12-09T21:06:39.583Z,44.97
2022-12-09T21:09:09.685Z,39.33
2022-12-09T21:11:37.789Z,38.20
2022-12-09T21:14:06.687Z,41.10
2022-12-09T21:16:38.708Z,39.43
2022-12-09T21:19:10.068Z,36.00
2022-12-09T21:21:40.161Z,32.90
2022-12-09T21:24:09.216Z,42.10
2022-12-09T21:26:37.171Z,39.17
2022-12-09T21:29:05.134Z,35.27
2022-12-09T21:31:37.728Z,40.70
2022-12-09T21:34:07.311Z,43.57
2022-12-09T21:36:36.925Z,37.23
2022-12-09T21:39:05.532Z,36.23
2022-12-09T21:41:36.282Z,43.53
2022-12-09T21:44:05.041Z,33.37
2022-12-09T21:46:36.758Z,31.97
2022-12-09T21:49:07.787Z,33.30
2022-12-09T21:51:36.031Z,39.00
2022-12-09T21:54:05.005Z,39.10
2022-12-09T21:56:35.538Z,40.93
2022-12-09T21:59:05.425Z,34.47
2022-12-09T22:01:34.932Z,42.27
2022-12-09T22:04:06.293Z,46.50
2022-12-09T22:06:34.501Z,43.37
2022-12-09T22:09:03.478Z,38.00
2022-12-09T22:11:36.526Z,43.40
2022-12-09T22:14:05.208Z,47.43
2022-12-09T22:16:34.879Z,42.67
2022-12-09T22:19:05.856Z,41.70
2022-12-09T22:21:34.225Z,41.97
2022-12-09T22:24:05.731Z,40.50
2022-12-09T22:26:34.059Z,50.40
2022-12-09T22:29:03.501Z,44.17
2022-12-09T22:31:33.981Z,41.17
2022-12-09T22:34:04.124Z,42.47
2022-12-09T22:36:34.537Z,46.67
2022-12-09T22:39:02.326Z,44.00
2022-12-09T22:41:30.445Z,49.70
2022-12-09T22:43:58.763Z,44.37
2022-12-09T22:46:29.762Z,42.80
2022-12-09T22:48:58.929Z,39.80
2022-12-09T22:51:29.133Z,40.37
2022-12-09T22:53:59.012Z,46.63
2022-12-09T22:56:28.257Z,39.60
2022-12-09T22:58:56.439Z,47.43
2022-12-09T23:01:26.605Z,56.93
2022-12-09T23:03:55.612Z,37.23
2022-12-09T23:06:23.959Z,41.27
2022-12-09T23:08:52.479Z,46.47
2022-12-09T23:11:23.766Z,42.70
2022-12-09T23:13:52.184Z,42.07
2022-12-09T23:16:22.806Z,43.07
2022-12-09T23:22:32.729Z,40.53
2022-12-09T23:25:00.634Z,51.30
2022-12-09T23:27:29.972Z,45.43
2022-12-09T23:29:57.765Z,46.40
2022-12-09T23:32:25.900Z,50.43
2022-12-09T23:34:53.742Z,48.00
2022-12-09T23:37:21.611Z,51.30
2022-12-09T23:39:49.756Z,47.20
2022-12-09T23:42:19.519Z,43.90
2022-12-09T23:44:48.799Z,46.17
2022-12-09T23:47:16.732Z,54.03
2022-12-09T23:49:44.844Z,44.27
2022-12-09T23:52:12.642Z,48.50
2022-12-09T23:54:40.631Z,46.93
2022-12-09T23:57:08.390Z,45.40
2022-12-09T23:59:36.665Z,46.63
